sensor_id;sensor_type;location;lat;lon;timestamp;pressure;altitude;pressure_sealevel;temperature;humidity
20115;BME280;10218;42.874;25.320;2023-07-31T00:00:15;96719.44;;;23.35;100.00
20115;BME280;10218;42.874;25.320;2023-07-31T00:02:43;96716.78;;;23.45;100.00
20115;BME280;10218;42.874;25.320;2023-07-31T00:05:10;96709.56;;;23.29;100.00
20115;BME280;10218;42.874;25.320;2023-07-31T00:07:37;96705.63;;;23.10;100.00
20115;BME280;10218;42.874;25.320;2023-07-31T00:10:04;96710.66;;;22.91;100.00
20115;BME280;10218;42.874;25.320;2023-07-31T00:12:32;96702.69;;;22.52;100.00
20115;BME280;10218;42.874;25.320;2023-07-31T00:14:59;96702.84;;;22.68;100.00
20115;BME280;10218;42.874;25.320;2023-07-31T00:17:26;96703.78;;;22.51;100.00
20115;BME280;10218;42.874;25.320;2023-07-31T00:19:53;96709.06;;;22.90;100.00
20115;BME280;10218;42.874;25.320;2023-07-31T00:22:20;96704.66;;;22.57;100.00
20115;BME280;10218;42.874;25.320;2023-07-31T00:24:48;96707.28;;;22.74;100.00
20115;BME280;10218;42.874;25.320;2023-07-31T00:27:15;96709.75;;;22.48;100.00
20115;BME280;10218;42.874;25.320;2023-07-31T00:29:42;96707.03;;;22.75;100.00
20115;BME280;10218;42.874;25.320;2023-07-31T00:32:10;96706.31;;;22.31;100.00
20115;BME280;10218;42.874;25.320;2023-07-31T00:34:37;96717.00;;;22.38;100.00
20115;BME280;10218;42.874;25.320;2023-07-31T00:37:04;96715.28;;;22.58;100.00
20115;BME280;10218;42.874;25.320;2023-07-31T00:39:34;96707.63;;;22.55;100.00
20115;BME280;10218;42.874;25.320;2023-07-31T00:42:01;96700.19;;;22.46;100.00
20115;BME280;10218;42.874;25.320;2023-07-31T00:44:28;96699.19;;;22.84;100.00
20115;BME280;10218;42.874;25.320;2023-07-31T00:46:56;96689.88;;;23.17;100.00
20115;BME280;10218;42.874;25.320;2023-07-31T00:49:23;96689.03;;;23.16;100.00
20115;BME280;10218;42.874;25.320;2023-07-31T00:51:50;96690.12;;;22.73;100.00
20115;BME280;10218;42.874;25.320;2023-07-31T00:54:17;96693.41;;;22.75;100.00
20115;BME280;10218;42.874;25.320;2023-07-31T00:56:45;96689.81;;;23.07;100.00
20115;BME280;10218;42.874;25.320;2023-07-31T00:59:15;96692.47;;;22.96;100.00
20115;BME280;10218;42.874;25.320;2023-07-31T01:01:42;96679.66;;;22.97;100.00
20115;BME280;10218;42.874;25.320;2023-07-31T01:04:09;96677.19;;;22.90;100.00
20115;BME280;10218;42.874;25.320;2023-07-31T01:09:20;96676.56;;;22.83;100.00
20115;BME280;10218;42.874;25.320;2023-07-31T01:11:57;96660.66;;;23.07;100.00
20115;BME280;10218;42.874;25.320;2023-07-31T01:14:27;96662.22;;;22.93;100.00
20115;BME280;10218;42.874;25.320;2023-07-31T01:16:55;96670.56;;;22.49;100.00
20115;BME280;10218;42.874;25.320;2023-07-31T01:19:23;96670.81;;;22.75;100.00
20115;BME280;10218;42.874;25.320;2023-07-31T01:25:21;96659.44;;;22.88;100.00
20115;BME280;10218;42.874;25.320;2023-07-31T01:27:59;96664.78;;;22.73;100.00
20115;BME280;10218;42.874;25.320;2023-07-31T01:30:32;96657.47;;;22.78;100.00
20115;BME280;10218;42.874;25.320;2023-07-31T01:33:03;96651.19;;;22.78;100.00
20115;BME280;10218;42.874;25.320;2023-07-31T01:35:34;96652.38;;;22.92;100.00
20115;BME280;10218;42.874;25.320;2023-07-31T01:38:03;96651.47;;;23.23;100.00
20115;BME280;10218;42.874;25.320;2023-07-31T01:40:31;96649.53;;;23.14;100.00
20115;BME280;10218;42.874;25.320;2023-07-31T01:42:58;96652.03;;;23.20;100.00
20115;BME280;10218;42.874;25.320;2023-07-31T01:45:25;96654.81;;;22.88;100.00
20115;BME280;10218;42.874;25.320;2023-07-31T01:47:53;96652.91;;;22.89;100.00
20115;BME280;10218;42.874;25.320;2023-07-31T01:50:20;96646.91;;;22.87;100.00
20115;BME280;10218;42.874;25.320;2023-07-31T01:52:47;96644.88;;;23.09;100.00
20115;BME280;10218;42.874;25.320;2023-07-31T01:55:14;96649.78;;;23.12;100.00
20115;BME280;10218;42.874;25.320;2023-07-31T01:57:42;96642.16;;;23.09;100.00
20115;BME280;10218;42.874;25.320;2023-07-31T02:00:09;96635.00;;;22.98;100.00
20115;BME280;10218;42.874;25.320;2023-07-31T02:02:37;96639.06;;;22.90;100.00
20115;BME280;10218;42.874;25.320;2023-07-31T02:05:05;96633.94;;;23.04;100.00
20115;BME280;10218;42.874;25.320;2023-07-31T02:07:32;96621.97;;;23.05;100.00
20115;BME280;10218;42.874;25.320;2023-07-31T02:09:59;96616.25;;;23.12;100.00
20115;BME280;10218;42.874;25.320;2023-07-31T02:12:26;96627.13;;;23.07;100.00
20115;BME280;10218;42.874;25.320;2023-07-31T02:14:53;96615.66;;;22.99;100.00
20115;BME280;10218;42.874;25.320;2023-07-31T02:17:20;96609.09;;;22.90;100.00
20115;BME280;10218;42.874;25.320;2023-07-31T02:19:48;96608.09;;;22.70;100.00
20115;BME280;10218;42.874;25.320;2023-07-31T02:22:15;96598.34;;;22.74;100.00
20115;BME280;10218;42.874;25.320;2023-07-31T02:24:42;96598.41;;;22.84;100.00
20115;BME280;10218;42.874;25.320;2023-07-31T02:27:09;96594.87;;;22.51;100.00
20115;BME280;10218;42.874;25.320;2023-07-31T02:29:36;96589.97;;;22.48;100.00
20115;BME280;10218;42.874;25.320;2023-07-31T02:32:03;96603.38;;;22.55;100.00
20115;BME280;10218;42.874;25.320;2023-07-31T02:34:31;96598.53;;;22.67;100.00
20115;BME280;10218;42.874;25.320;2023-07-31T02:36:58;96607.53;;;22.68;100.00
20115;BME280;10218;42.874;25.320;2023-07-31T02:39:25;96604.44;;;22.91;100.00
20115;BME280;10218;42.874;25.320;2023-07-31T02:41:53;96611.34;;;22.67;100.00
20115;BME280;10218;42.874;25.320;2023-07-31T02:44:20;96613.50;;;23.07;100.00
20115;BME280;10218;42.874;25.320;2023-07-31T02:46:47;96619.63;;;22.82;100.00
20115;BME280;10218;42.874;25.320;2023-07-31T02:49:16;96628.06;;;22.75;100.00
20115;BME280;10218;42.874;25.320;2023-07-31T02:51:43;96643.50;;;22.38;100.00
20115;BME280;10218;42.874;25.320;2023-07-31T02:54:10;96640.16;;;22.62;100.00
20115;BME280;10218;42.874;25.320;2023-07-31T02:56:37;96617.34;;;22.69;100.00
20115;BME280;10218;42.874;25.320;2023-07-31T02:59:04;96621.62;;;22.96;100.00
20115;BME280;10218;42.874;25.320;2023-07-31T03:01:31;96623.59;;;23.06;100.00
20115;BME280;10218;42.874;25.320;2023-07-31T03:03:59;96631.41;;;22.92;100.00
20115;BME280;10218;42.874;25.320;2023-07-31T03:06:26;96640.16;;;22.62;100.00
20115;BME280;10218;42.874;25.320;2023-07-31T03:08:53;96638.75;;;22.92;100.00
20115;BME280;10218;42.874;25.320;2023-07-31T03:11:21;96639.81;;;22.86;100.00
20115;BME280;10218;42.874;25.320;2023-07-31T03:13:48;96637.47;;;22.99;100.00
20115;BME280;10218;42.874;25.320;2023-07-31T03:16:15;96638.53;;;22.98;100.00
20115;BME280;10218;42.874;25.320;2023-07-31T03:18:42;96641.22;;;22.88;100.00
20115;BME280;10218;42.874;25.320;2023-07-31T03:21:09;96646.31;;;22.80;100.00
20115;BME280;10218;42.874;25.320;2023-07-31T03:23:36;96651.97;;;23.10;100.00
20115;BME280;10218;42.874;25.320;2023-07-31T03:26:07;96659.94;;;22.80;100.00
20115;BME280;10218;42.874;25.320;2023-07-31T03:28:35;96672.94;;;22.73;100.00
20115;BME280;10218;42.874;25.320;2023-07-31T03:31:04;96668.00;;;22.70;100.00
20115;BME280;10218;42.874;25.320;2023-07-31T03:33:31;96664.28;;;22.81;100.00
20115;BME280;10218;42.874;25.320;2023-07-31T03:35:58;96674.03;;;22.72;100.00
20115;BME280;10218;42.874;25.320;2023-07-31T03:38:25;96676.19;;;22.70;100.00
20115;BME280;10218;42.874;25.320;2023-07-31T03:40:53;96680.09;;;22.52;100.00
20115;BME280;10218;42.874;25.320;2023-07-31T03:43:20;96682.34;;;22.28;100.00
20115;BME280;10218;42.874;25.320;2023-07-31T03:45:47;96688.62;;;22.29;100.00
20115;BME280;10218;42.874;25.320;2023-07-31T03:48:15;96695.59;;;22.20;100.00
20115;BME280;10218;42.874;25.320;2023-07-31T03:50:43;96698.69;;;22.28;100.00
20115;BME280;10218;42.874;25.320;2023-07-31T03:53:10;96694.25;;;22.22;100.00
20115;BME280;10218;42.874;25.320;2023-07-31T03:55:37;96700.47;;;22.17;100.00
20115;BME280;10218;42.874;25.320;2023-07-31T03:58:04;96701.28;;;22.18;100.00
20115;BME280;10218;42.874;25.320;2023-07-31T04:00:31;96700.72;;;22.16;100.00
20115;BME280;10218;42.874;25.320;2023-07-31T04:02:59;96698.56;;;22.18;100.00
20115;BME280;10218;42.874;25.320;2023-07-31T04:05:26;96706.31;;;22.31;100.00
20115;BME280;10218;42.874;25.320;2023-07-31T04:07:53;96713.97;;;22.34;100.00
20115;BME280;10218;42.874;25.320;2023-07-31T04:10:20;96709.13;;;22.41;100.00
20115;BME280;10218;42.874;25.320;2023-07-31T04:12:47;96701.16;;;22.61;100.00
20115;BME280;10218;42.874;25.320;2023-07-31T04:15:14;96710.13;;;22.62;100.00
20115;BME280;10218;42.874;25.320;2023-07-31T04:17:42;96710.97;;;22.62;100.00
20115;BME280;10218;42.874;25.320;2023-07-31T04:20:09;96700.81;;;22.53;100.00
20115;BME280;10218;42.874;25.320;2023-07-31T04:22:36;96707.16;;;22.64;100.00
20115;BME280;10218;42.874;25.320;2023-07-31T04:25:04;96717.13;;;22.53;100.00
20115;BME280;10218;42.874;25.320;2023-07-31T04:27:31;96713.78;;;22.46;100.00
20115;BME280;10218;42.874;25.320;2023-07-31T04:29:58;96729.44;;;22.60;100.00
20115;BME280;10218;42.874;25.320;2023-07-31T04:32:25;96715.78;;;22.55;100.00
20115;BME280;10218;42.874;25.320;2023-07-31T04:34:52;96700.28;;;22.56;100.00
20115;BME280;10218;42.874;25.320;2023-07-31T04:37:19;96711.69;;;22.80;100.00
20115;BME280;10218;42.874;25.320;2023-07-31T04:39:47;96715.78;;;22.55;100.00
20115;BME280;10218;42.874;25.320;2023-07-31T04:42:14;96711.78;;;22.90;100.00
20115;BME280;10218;42.874;25.320;2023-07-31T04:44:41;96707.81;;;22.76;100.00
20115;BME280;10218;42.874;25.320;2023-07-31T04:47:08;96721.22;;;22.82;100.00
20115;BME280;10218;42.874;25.320;2023-07-31T04:49:35;96725.78;;;22.72;100.00
20115;BME280;10218;42.874;25.320;2023-07-31T04:52:03;96728.75;;;22.70;100.00
20115;BME280;10218;42.874;25.320;2023-07-31T04:54:30;96740.34;;;22.60;100.00
20115;BME280;10218;42.874;25.320;2023-07-31T04:56:57;96748.56;;;22.66;100.00
20115;BME280;10218;42.874;25.320;2023-07-31T04:59:24;96743.62;;;22.62;100.00
20115;BME280;10218;42.874;25.320;2023-07-31T05:01:51;96729.88;;;22.47;100.00
20115;BME280;10218;42.874;25.320;2023-07-31T05:04:18;96738.63;;;22.49;100.00
20115;BME280;10218;42.874;25.320;2023-07-31T05:06:45;96743.38;;;22.37;100.00
20115;BME280;10218;42.874;25.320;2023-07-31T05:09:12;96750.19;;;22.35;100.00
20115;BME280;10218;42.874;25.320;2023-07-31T05:11:39;96749.19;;;22.19;100.00
20115;BME280;10218;42.874;25.320;2023-07-31T05:14:09;96752.69;;;22.14;100.00
20115;BME280;10218;42.874;25.320;2023-07-31T05:16:36;96754.69;;;22.24;100.00
20115;BME280;10218;42.874;25.320;2023-07-31T05:19:03;96738.97;;;22.31;100.00
20115;BME280;10218;42.874;25.320;2023-07-31T05:21:30;96756.66;;;22.07;100.00
20115;BME280;10218;42.874;25.320;2023-07-31T05:23:58;96754.16;;;22.27;100.00
20115;BME280;10218;42.874;25.320;2023-07-31T05:26:25;96751.75;;;22.04;100.00
20115;BME280;10218;42.874;25.320;2023-07-31T05:28:52;96762.28;;;22.00;100.00
20115;BME280;10218;42.874;25.320;2023-07-31T05:31:19;96763.75;;;22.08;100.00
20115;BME280;10218;42.874;25.320;2023-07-31T05:33:47;96763.88;;;22.18;100.00
20115;BME280;10218;42.874;25.320;2023-07-31T05:36:17;96761.91;;;22.13;100.00
20115;BME280;10218;42.874;25.320;2023-07-31T05:38:44;96766.91;;;22.48;100.00
20115;BME280;10218;42.874;25.320;2023-07-31T05:41:12;96756.69;;;22.34;100.00
20115;BME280;10218;42.874;25.320;2023-07-31T05:43:39;96752.69;;;22.14;100.00
20115;BME280;10218;42.874;25.320;2023-07-31T05:46:07;96767.34;;;22.40;100.00
20115;BME280;10218;42.874;25.320;2023-07-31T05:48:35;96767.88;;;22.37;100.00
20115;BME280;10218;42.874;25.320;2023-07-31T05:51:02;96766.97;;;22.53;100.00
20115;BME280;10218;42.874;25.320;2023-07-31T05:53:30;96763.56;;;22.41;100.00
20115;BME280;10218;42.874;25.320;2023-07-31T05:55:57;96770.03;;;22.35;100.00
20115;BME280;10218;42.874;25.320;2023-07-31T05:58:24;96764.34;;;22.64;100.00
20115;BME280;10218;42.874;25.320;2023-07-31T06:00:51;96767.75;;;22.76;100.00
20115;BME280;10218;42.874;25.320;2023-07-31T06:03:18;96771.22;;;22.71;100.00
20115;BME280;10218;42.874;25.320;2023-07-31T06:05:45;96763.28;;;22.65;100.00
20115;BME280;10218;42.874;25.320;2023-07-31T06:08:15;96780.34;;;22.55;100.00
20115;BME280;10218;42.874;25.320;2023-07-31T06:10:42;96786.78;;;22.76;100.00
20115;BME280;10218;42.874;25.320;2023-07-31T06:13:09;96786.28;;;22.52;100.00
20115;BME280;10218;42.874;25.320;2023-07-31T06:15:36;96786.56;;;22.55;100.00
20115;BME280;10218;42.874;25.320;2023-07-31T06:18:04;96777.69;;;22.38;100.00
20115;BME280;10218;42.874;25.320;2023-07-31T06:20:34;96782.00;;;22.34;100.00
20115;BME280;10218;42.874;25.320;2023-07-31T06:23:02;96785.16;;;22.26;100.00
20115;BME280;10218;42.874;25.320;2023-07-31T06:25:30;96786.06;;;22.32;100.00
20115;BME280;10218;42.874;25.320;2023-07-31T06:27:57;96784.44;;;22.57;100.00
20115;BME280;10218;42.874;25.320;2023-07-31T06:30:24;96792.00;;;22.55;100.00
20115;BME280;10218;42.874;25.320;2023-07-31T06:32:52;96795.13;;;22.64;100.00
20115;BME280;10218;42.874;25.320;2023-07-31T06:35:19;96791.03;;;22.67;100.00
20115;BME280;10218;42.874;25.320;2023-07-31T06:37:46;96801.13;;;22.17;100.00
20115;BME280;10218;42.874;25.320;2023-07-31T06:40:13;96805.09;;;22.53;100.00
20115;BME280;10218;42.874;25.320;2023-07-31T06:42:40;96799.87;;;22.52;100.00
20115;BME280;10218;42.874;25.320;2023-07-31T06:45:08;96802.00;;;22.72;100.00
20115;BME280;10218;42.874;25.320;2023-07-31T06:47:35;96801.78;;;22.51;100.00
20115;BME280;10218;42.874;25.320;2023-07-31T06:50:03;96807.34;;;22.35;100.00
20115;BME280;10218;42.874;25.320;2023-07-31T06:52:30;96803.69;;;22.24;100.00
20115;BME280;10218;42.874;25.320;2023-07-31T06:55:01;96807.34;;;22.13;100.00
20115;BME280;10218;42.874;25.320;2023-07-31T06:57:30;96804.19;;;22.48;100.00
20115;BME280;10218;42.874;25.320;2023-07-31T06:59:58;96779.91;;;22.41;100.00
20115;BME280;10218;42.874;25.320;2023-07-31T07:02:25;96788.28;;;22.35;100.00
20115;BME280;10218;42.874;25.320;2023-07-31T07:04:52;96794.59;;;22.67;100.00
20115;BME280;10218;42.874;25.320;2023-07-31T07:07:19;96788.53;;;22.33;100.00
20115;BME280;10218;42.874;25.320;2023-07-31T07:09:46;96782.34;;;22.65;100.00
20115;BME280;10218;42.874;25.320;2023-07-31T07:12:13;96793.16;;;22.86;100.00
20115;BME280;10218;42.874;25.320;2023-07-31T07:14:41;96782.25;;;22.86;100.00
20115;BME280;10218;42.874;25.320;2023-07-31T07:17:08;96773.56;;;22.84;100.00
20115;BME280;10218;42.874;25.320;2023-07-31T07:19:35;96768.34;;;23.15;100.00
20115;BME280;10218;42.874;25.320;2023-07-31T07:22:02;96774.63;;;23.15;100.00
20115;BME280;10218;42.874;25.320;2023-07-31T07:24:29;96776.41;;;23.36;100.00
20115;BME280;10218;42.874;25.320;2023-07-31T07:26:56;96774.16;;;23.65;100.00
20115;BME280;10218;42.874;25.320;2023-07-31T07:29:23;96769.50;;;23.61;100.00
20115;BME280;10218;42.874;25.320;2023-07-31T07:31:50;96777.63;;;23.51;100.00
20115;BME280;10218;42.874;25.320;2023-07-31T07:34:17;96750.62;;;23.49;100.00
20115;BME280;10218;42.874;25.320;2023-07-31T07:36:45;96774.00;;;23.87;100.00
20115;BME280;10218;42.874;25.320;2023-07-31T07:39:12;96783.81;;;23.88;100.00
20115;BME280;10218;42.874;25.320;2023-07-31T07:41:39;96783.38;;;24.06;100.00
20115;BME280;10218;42.874;25.320;2023-07-31T07:44:07;96783.81;;;24.55;100.00
20115;BME280;10218;42.874;25.320;2023-07-31T07:46:35;96785.81;;;25.00;100.00
20115;BME280;10218;42.874;25.320;2023-07-31T07:49:02;96785.72;;;24.60;100.00
20115;BME280;10218;42.874;25.320;2023-07-31T07:51:29;96780.78;;;24.37;100.00
20115;BME280;10218;42.874;25.320;2023-07-31T07:53:58;96786.88;;;25.30;100.00
20115;BME280;10218;42.874;25.320;2023-07-31T07:56:26;96788.00;;;25.59;100.00
20115;BME280;10218;42.874;25.320;2023-07-31T07:58:54;96783.09;;;26.41;100.00
20115;BME280;10218;42.874;25.320;2023-07-31T08:01:21;96779.69;;;26.59;100.00
20115;BME280;10218;42.874;25.320;2023-07-31T08:03:49;96785.34;;;26.72;100.00
20115;BME280;10218;42.874;25.320;2023-07-31T08:06:16;96782.91;;;26.71;100.00
20115;BME280;10218;42.874;25.320;2023-07-31T08:08:43;96783.19;;;26.15;100.00
20115;BME280;10218;42.874;25.320;2023-07-31T08:11:11;96796.78;;;27.23;100.00
20115;BME280;10218;42.874;25.320;2023-07-31T08:13:38;96788.56;;;26.85;100.00
20115;BME280;10218;42.874;25.320;2023-07-31T08:16:05;96775.59;;;25.87;100.00
20115;BME280;10218;42.874;25.320;2023-07-31T08:18:32;96784.97;;;25.66;100.00
20115;BME280;10218;42.874;25.320;2023-07-31T08:21:02;96772.00;;;25.96;100.00
20115;BME280;10218;42.874;25.320;2023-07-31T08:23:29;96780.34;;;25.05;100.00
20115;BME280;10218;42.874;25.320;2023-07-31T08:25:56;96780.25;;;25.81;100.00
20115;BME280;10218;42.874;25.320;2023-07-31T08:28:23;96773.56;;;26.23;100.00
20115;BME280;10218;42.874;25.320;2023-07-31T08:30:50;96784.56;;;27.40;100.00
20115;BME280;10218;42.874;25.320;2023-07-31T08:33:17;96778.59;;;26.01;100.00
20115;BME280;10218;42.874;25.320;2023-07-31T08:35:44;96780.16;;;27.44;100.00
20115;BME280;10218;42.874;25.320;2023-07-31T08:38:12;96766.34;;;25.73;100.00
20115;BME280;10218;42.874;25.320;2023-07-31T08:40:39;96761.25;;;26.20;100.00
20115;BME280;10218;42.874;25.320;2023-07-31T08:43:07;96766.28;;;27.30;100.00
20115;BME280;10218;42.874;25.320;2023-07-31T08:45:34;96772.06;;;26.95;100.00
20115;BME280;10218;42.874;25.320;2023-07-31T08:48:02;96764.47;;;26.81;100.00
20115;BME280;10218;42.874;25.320;2023-07-31T08:50:29;96772.41;;;27.22;100.00
20115;BME280;10218;42.874;25.320;2023-07-31T08:52:56;96772.56;;;27.64;100.00
20115;BME280;10218;42.874;25.320;2023-07-31T08:55:25;96777.91;;;28.70;100.00
20115;BME280;10218;42.874;25.320;2023-07-31T08:57:53;96769.22;;;29.00;100.00
20115;BME280;10218;42.874;25.320;2023-07-31T09:00:21;96776.03;;;29.03;100.00
20115;BME280;10218;42.874;25.320;2023-07-31T09:03:14;96777.00;;;27.60;100.00
20115;BME280;10218;42.874;25.320;2023-07-31T09:05:44;96766.41;;;26.81;100.00
20115;BME280;10218;42.874;25.320;2023-07-31T09:08:18;96765.75;;;28.33;100.00
20115;BME280;10218;42.874;25.320;2023-07-31T09:10:46;96762.00;;;29.04;100.00
20115;BME280;10218;42.874;25.320;2023-07-31T09:13:14;96769.56;;;28.56;100.00
20115;BME280;10218;42.874;25.320;2023-07-31T09:15:44;96770.00;;;29.52;100.00
20115;BME280;10218;42.874;25.320;2023-07-31T09:18:12;96772.72;;;29.84;100.00
20115;BME280;10218;42.874;25.320;2023-07-31T09:20:41;96770.44;;;29.72;100.00
20115;BME280;10218;42.874;25.320;2023-07-31T09:23:13;96774.34;;;30.40;100.00
20115;BME280;10218;42.874;25.320;2023-07-31T09:25:43;96763.06;;;29.41;100.00
20115;BME280;10218;42.874;25.320;2023-07-31T09:28:11;96782.69;;;30.76;100.00
20115;BME280;10218;42.874;25.320;2023-07-31T09:30:45;96771.78;;;29.89;100.00
20115;BME280;10218;42.874;25.320;2023-07-31T09:33:14;96771.00;;;30.15;85.43
20115;BME280;10218;42.874;25.320;2023-07-31T09:35:41;96762.75;;;30.15;90.55
20115;BME280;10218;42.874;25.320;2023-07-31T09:38:10;96758.78;;;29.94;92.52
20115;BME280;10218;42.874;25.320;2023-07-31T09:40:40;96751.34;;;28.60;97.68
20115;BME280;10218;42.874;25.320;2023-07-31T09:43:12;96751.72;;;28.11;100.00
20115;BME280;10218;42.874;25.320;2023-07-31T09:45:41;96759.19;;;28.29;100.00
20115;BME280;10218;42.874;25.320;2023-07-31T09:48:18;96764.81;;;28.19;100.00
20115;BME280;10218;42.874;25.320;2023-07-31T09:50:48;96752.19;;;27.71;100.00
20115;BME280;10218;42.874;25.320;2023-07-31T09:53:16;96758.09;;;29.24;98.19
20115;BME280;10218;42.874;25.320;2023-07-31T09:55:43;96749.81;;;28.54;97.43
20115;BME280;10218;42.874;25.320;2023-07-31T09:58:12;96759.28;;;27.77;100.00
20115;BME280;10218;42.874;25.320;2023-07-31T10:00:39;96750.03;;;28.15;100.00
20115;BME280;10218;42.874;25.320;2023-07-31T10:03:09;96750.50;;;29.94;83.29
20115;BME280;10218;42.874;25.320;2023-07-31T10:05:37;96754.41;;;28.59;96.99
20115;BME280;10218;42.874;25.320;2023-07-31T10:08:07;96749.59;;;28.88;91.58
20115;BME280;10218;42.874;25.320;2023-07-31T10:10:36;96754.91;;;29.49;91.62
20115;BME280;10218;42.874;25.320;2023-07-31T10:13:04;96753.72;;;29.69;84.34
20115;BME280;10218;42.874;25.320;2023-07-31T10:15:33;96752.09;;;31.22;74.01
20115;BME280;10218;42.874;25.320;2023-07-31T10:18:01;96748.91;;;30.70;74.05
20115;BME280;10218;42.874;25.320;2023-07-31T10:20:29;96751.41;;;28.79;82.32
20115;BME280;10218;42.874;25.320;2023-07-31T10:22:56;96747.75;;;28.83;86.23
20115;BME280;10218;42.874;25.320;2023-07-31T10:25:26;96746.47;;;30.91;68.27
20115;BME280;10218;42.874;25.320;2023-07-31T10:27:54;96750.06;;;30.42;74.43
20115;BME280;10218;42.874;25.320;2023-07-31T10:30:25;96749.59;;;30.76;71.85
20115;BME280;10218;42.874;25.320;2023-07-31T10:32:54;96737.97;;;32.81;55.86
20115;BME280;10218;42.874;25.320;2023-07-31T10:35:22;96739.47;;;32.22;60.10
20115;BME280;10218;42.874;25.320;2023-07-31T10:37:49;96734.66;;;32.53;58.33
20115;BME280;10218;42.874;25.320;2023-07-31T10:42:54;96734.81;;;29.16;80.63
20115;BME280;10218;42.874;25.320;2023-07-31T10:48:16;96743.06;;;29.16;85.86
20115;BME280;10218;42.874;25.320;2023-07-31T10:50:50;96739.87;;;28.16;99.83
20115;BME280;10218;42.874;25.320;2023-07-31T10:53:29;96734.41;;;29.42;87.14
20115;BME280;10218;42.874;25.320;2023-07-31T10:56:02;96727.97;;;29.32;89.20
20115;BME280;10218;42.874;25.320;2023-07-31T10:58:30;96736.00;;;31.01;81.26
20115;BME280;10218;42.874;25.320;2023-07-31T11:01:01;96730.72;;;29.00;85.62
20115;BME280;10218;42.874;25.320;2023-07-31T11:03:42;96738.97;;;29.32;87.62
20115;BME280;10218;42.874;25.320;2023-07-31T11:06:10;96737.50;;;29.54;88.78
20115;BME280;10218;42.874;25.320;2023-07-31T11:08:43;96735.66;;;27.99;100.00
20115;BME280;10218;42.874;25.320;2023-07-31T11:11:13;96730.97;;;28.00;100.00
20115;BME280;10218;42.874;25.320;2023-07-31T11:16:12;96737.16;;;28.90;96.18
20115;BME280;10218;42.874;25.320;2023-07-31T11:18:41;96735.59;;;30.23;82.11
20115;BME280;10218;42.874;25.320;2023-07-31T11:21:13;96743.00;;;28.89;83.71
20115;BME280;10218;42.874;25.320;2023-07-31T11:23:41;96736.03;;;28.35;84.70
20115;BME280;10218;42.874;25.320;2023-07-31T11:26:08;96735.66;;;30.45;67.05
20115;BME280;10218;42.874;25.320;2023-07-31T11:28:35;96738.53;;;29.25;83.99
20115;BME280;10218;42.874;25.320;2023-07-31T11:31:03;96734.94;;;28.92;73.16
20115;BME280;10218;42.874;25.320;2023-07-31T11:33:31;96732.94;;;29.30;70.57
20115;BME280;10218;42.874;25.320;2023-07-31T11:35:58;96726.41;;;30.27;68.22
20115;BME280;10218;42.874;25.320;2023-07-31T11:38:30;96738.66;;;29.80;70.03
20115;BME280;10218;42.874;25.320;2023-07-31T11:41:03;96739.63;;;28.55;77.90
20115;BME280;10218;42.874;25.320;2023-07-31T11:43:31;96736.94;;;28.07;83.14
20115;BME280;10218;42.874;25.320;2023-07-31T11:47:11;96714.66;;;28.32;83.43
20115;BME280;10218;42.874;25.320;2023-07-31T11:49:39;96714.66;;;28.32;83.43
20115;BME280;10218;42.874;25.320;2023-07-31T11:52:06;96686.66;;;28.30;86.40
20115;BME280;10218;42.874;25.320;2023-07-31T11:54:33;96711.06;;;27.89;93.11
20115;BME280;10218;42.874;25.320;2023-07-31T11:57:01;96710.81;;;29.82;75.94
20115;BME280;10218;42.874;25.320;2023-07-31T11:59:29;96708.31;;;28.74;84.29
20115;BME280;10218;42.874;25.320;2023-07-31T12:01:56;96712.22;;;29.19;87.42
20115;BME280;10218;42.874;25.320;2023-07-31T12:04:24;96715.03;;;28.02;86.48
20115;BME280;10218;42.874;25.320;2023-07-31T12:06:53;96705.00;;;28.54;85.21
20115;BME280;10218;42.874;25.320;2023-07-31T12:09:21;96708.03;;;28.71;87.57
20115;BME280;10218;42.874;25.320;2023-07-31T12:11:48;96710.66;;;28.81;83.16
20115;BME280;10218;42.874;25.320;2023-07-31T12:14:23;96711.53;;;28.95;82.67
20115;BME280;10218;42.874;25.320;2023-07-31T12:17:00;96710.41;;;29.28;79.82
20115;BME280;10218;42.874;25.320;2023-07-31T12:19:28;96708.50;;;30.38;70.43
20115;BME280;10218;42.874;25.320;2023-07-31T12:21:57;96707.44;;;31.51;60.51
20115;BME280;10218;42.874;25.320;2023-07-31T12:24:26;96699.22;;;31.99;65.78
20115;BME280;10218;42.874;25.320;2023-07-31T12:26:53;96694.78;;;29.70;80.72
20115;BME280;10218;42.874;25.320;2023-07-31T12:29:22;96693.37;;;29.86;79.32
20115;BME280;10218;42.874;25.320;2023-07-31T12:31:49;96687.41;;;29.38;79.92
20115;BME280;10218;42.874;25.320;2023-07-31T12:34:17;96698.25;;;30.88;71.28
20115;BME280;10218;42.874;25.320;2023-07-31T12:36:48;96699.88;;;30.89;70.65
20115;BME280;10218;42.874;25.320;2023-07-31T12:39:15;96682.66;;;31.99;67.16
20115;BME280;10218;42.874;25.320;2023-07-31T12:41:42;96686.53;;;30.11;69.95
20115;BME280;10218;42.874;25.320;2023-07-31T12:44:10;96684.00;;;32.10;59.47
20115;BME280;10218;42.874;25.320;2023-07-31T12:46:37;96687.47;;;32.33;59.78
20115;BME280;10218;42.874;25.320;2023-07-31T12:49:04;96692.75;;;30.66;63.87
20115;BME280;10218;42.874;25.320;2023-07-31T12:51:31;96686.75;;;30.86;61.70
20115;BME280;10218;42.874;25.320;2023-07-31T12:53:58;96678.84;;;32.34;56.35
20115;BME280;10218;42.874;25.320;2023-07-31T12:56:25;96679.56;;;30.63;63.30
20115;BME280;10218;42.874;25.320;2023-07-31T12:58:53;96686.03;;;30.81;65.30
20115;BME280;10218;42.874;25.320;2023-07-31T13:01:20;96681.75;;;31.41;70.48